Terminal Aerodrome Forecast
Issued by NWS Memphis, TN

Home | Current Version | Previous Version | Text Only | Print | Product List | Glossary On
Versions: 1 2 3 4 5 6 7 8 9 10 11 12 13 14 15 16 17 18 19
000
FTUS44 KMEG 301520 AAA
TAFMKL
TAF AMD
KMKL 301520Z 3015/3112 18004KT P6SM VCSH FEW015 BKN100
      TEMPO 3015/3016 -SHRA BKN015
     FM301630 24007KT P6SM SCT035
     FM302100 29004KT P6SM VCTS FEW045CB BKN050
     FM310100 20003KT P6SM SCT250
      TEMPO 3108/3112 1SM BR=

USA.gov is the U.S. government's official web portal to all federal, state and local government web resources and services.